Time;durP1;ratioP1;P1;durP2;ratioP2;P2;SDS_P1;SDS_P2;PMS_P1;PMS_P2;Temp;Humidity;BMP_temperature;BMP_pressure;BME280_temperature;BME280_humidity;BME280_pressure;Samples;Min_cycle;Max_cycle;Signal;HPM_P1;HPM_P2
2021/08/23 00:01:59;;;;;;;1.6;1.2;;;;;;;15.61;94.43555;942.851;;;;
2021/08/23 00:04:24;;;;;;;1.2;1.1;;;;;;;15.52;95.22266;942.8245;;;;
2021/08/23 00:06:50;;;;;;;1.2;1;;;;;;;15.49;94.95313;942.7988;;;;
2021/08/23 00:09:19;;;;;;;1.4;1;;;;;;;15.48;95.07422;942.8414;;;;
2021/08/23 00:11:41;;;;;;;1.3;1.1;;;;;;;15.47;95.55957;942.7957;;;;
2021/08/23 00:14:07;;;;;;;3.4;1.2;;;;;;;15.45;95.92285;942.8367;;;;
2021/08/23 00:16:32;;;;;;;2.3;1.3;;;;;;;15.47;96.48145;942.8286;;;;
2021/08/23 00:18:57;;;;;;;1.9;1.3;;;;;;;15.43;96.23145;942.7581;;;;
2021/08/23 00:21:25;;;;;;;1.4;1.2;;;;;;;15.44;94.96484;942.7709;;;;
2021/08/23 00:23:52;;;;;;;1.7;1.3;;;;;;;15.41;94.35645;942.7932;;;;
2021/08/23 00:26:12;;;;;;;1.7;1.6;;;;;;;15.44;94.98633;942.7636;;;;
2021/08/23 00:28:37;;;;;;;1.7;1.1;;;;;;;15.3;95.46484;942.7339;;;;
2021/08/23 00:31:02;;;;;;;1.4;1.3;;;;;;;15.27;94.87012;942.6891;;;;
2021/08/23 00:33:27;;;;;;;1.3;1.2;;;;;;;15.2;95.84668;942.5804;;;;
2021/08/23 00:35:53;;;;;;;1.6;1.2;;;;;;;15.28;95.50684;942.6039;;;;
2021/08/23 00:38:18;;;;;;;1.4;1.2;;;;;;;15.37;94.41797;942.6584;;;;
2021/08/23 00:40:43;;;;;;;1.4;1.1;;;;;;;15.34;94.58496;942.6055;;;;
2021/08/23 00:43:08;;;;;;;1.6;1.2;;;;;;;15.32;95.21387;942.6303;;;;
2021/08/23 00:45:33;;;;;;;2.4;1.1;;;;;;;15.43;93.25195;942.6072;;;;
2021/08/23 00:47:58;;;;;;;1;1;;;;;;;15.42;93.94238;942.6128;;;;
2021/08/23 00:50:23;;;;;;;1.7;1.3;;;;;;;15.45;93.64844;942.6088;;;;
2021/08/23 00:52:48;;;;;;;1.2;1.1;;;;;;;15.46;93.61523;942.5806;;;;
2021/08/23 00:55:13;;;;;;;1.8;1.5;;;;;;;15.41;95.03809;942.5876;;;;
2021/08/23 00:57:38;;;;;;;1.9;1.3;;;;;;;15.47;94.51855;942.5829;;;;
2021/08/23 01:00:03;;;;;;;1.5;1.3;;;;;;;15.5;94.42188;942.6206;;;;
2021/08/23 01:02:29;;;;;;;1.5;1.4;;;;;;;15.54;94.61719;942.5804;;;;
2021/08/23 01:04:54;;;;;;;1.7;1.5;;;;;;;15.62;94.27441;942.5165;;;;
2021/08/23 01:07:19;;;;;;;1.1;1;;;;;;;15.42;94.67188;942.5854;;;;
2021/08/23 01:09:44;;;;;;;1.6;1.5;;;;;;;15.35;94.99121;942.5765;;;;
2021/08/23 01:12:09;;;;;;;1.4;1.3;;;;;;;15.35;95.48535;942.5629;;;;
2021/08/23 01:14:34;;;;;;;1.8;1.4;;;;;;;15.33;95.53906;942.53;;;;
2021/08/23 01:16:59;;;;;;;1.2;1.1;;;;;;;15.48;94.7168;942.5349;;;;
2021/08/23 01:19:25;;;;;;;2.1;1.9;;;;;;;15.41;94.64551;942.5114;;;;
2021/08/23 01:21:50;;;;;;;1.5;1.3;;;;;;;15.45;94.98828;942.5004;;;;
2021/08/23 01:24:15;;;;;;;1.3;1.2;;;;;;;15.43;94.91504;942.4803;;;;
2021/08/23 01:26:40;;;;;;;2;1.1;;;;;;;15.45;94.60645;942.4345;;;;
2021/08/23 01:29:05;;;;;;;1.6;1.4;;;;;;;15.43;94.52246;942.421;;;;
2021/08/23 01:31:31;;;;;;;2.4;2.2;;;;;;;15.38;94.38574;942.4336;;;;
2021/08/23 01:33:56;;;;;;;2.7;1.8;;;;;;;15.32;94.38281;942.4394;;;;
2021/08/23 01:36:21;;;;;;;1.4;1.2;;;;;;;15.49;93.67188;942.4007;;;;
2021/08/23 01:38:46;;;;;;;1.9;1.1;;;;;;;15.51;93.27148;942.3493;;;;
2021/08/23 01:41:11;;;;;;;1.4;1.1;;;;;;;15.47;93.71191;942.4016;;;;
2021/08/23 01:43:36;;;;;;;2.2;1.4;;;;;;;15.17;95.29785;942.3367;;;;
2021/08/23 01:46:03;;;;;;;2;1.4;;;;;;;15.24;95.44141;942.3617;;;;
2021/08/23 01:48:28;;;;;;;2.1;1.2;;;;;;;15.27;94.8584;942.3849;;;;
2021/08/23 01:50:54;;;;;;;1.5;1.3;;;;;;;15.29;95.51855;942.3689;;;;
2021/08/23 01:53:20;;;;;;;1.1;1;;;;;;;15.37;95.08789;942.3381;;;;
2021/08/23 01:55:46;;;;;;;2.4;1.4;;;;;;;15.42;94.66016;942.3262;;;;
2021/08/23 01:58:11;;;;;;;1;0.9;;;;;;;15.31;92.33789;942.283;;;;
2021/08/23 02:00:36;;;;;;;2.1;1.1;;;;;;;15.18;93.47461;942.2516;;;;
2021/08/23 02:03:01;;;;;;;1.8;1.1;;;;;;;15.02;93.77637;942.2519;;;;
2021/08/23 02:05:41;;;;;;;2;1.3;;;;;;;15.07;93.85547;942.2542;;;;
2021/08/23 02:08:07;;;;;;;2.4;1.3;;;;;;;14.9;94.32617;942.2269;;;;
2021/08/23 02:10:33;;;;;;;1.7;1.2;;;;;;;14.86;94.9873;942.3576;;;;
2021/08/23 02:12:57;;;;;;;1.7;1.3;;;;;;;14.95;95.36426;942.3695;;;;
2021/08/23 02:15:23;;;;;;;1.3;1.2;;;;;;;15;95.04004;942.2524;;;;
2021/08/23 02:17:48;;;;;;;1.8;1.4;;;;;;;15.05;94.45117;942.3215;;;;
2021/08/23 02:20:13;;;;;;;2.1;1.3;;;;;;;15.13;92.76172;942.3014;;;;
2021/08/23 02:22:39;;;;;;;1.5;1.2;;;;;;;15.17;93.77344;942.3447;;;;
2021/08/23 02:25:04;;;;;;;1.3;1.2;;;;;;;15.23;92.48047;942.2888;;;;
2021/08/23 02:27:29;;;;;;;2.1;1.2;;;;;;;15.18;93.61523;942.3038;;;;
2021/08/23 02:29:54;;;;;;;1.3;1.2;;;;;;;15.22;93.65723;942.3273;;;;
2021/08/23 02:32:19;;;;;;;1.6;1.4;;;;;;;15.24;93.32715;942.3304;;;;
2021/08/23 02:34:44;;;;;;;2.1;1.5;;;;;;;15.26;93.26172;942.2967;;;;
2021/08/23 02:37:09;;;;;;;1.5;1.3;;;;;;;15.27;93.66895;942.3152;;;;
2021/08/23 02:39:34;;;;;;;1.7;1.4;;;;;;;15.28;93.52148;942.307;;;;
2021/08/23 02:41:59;;;;;;;2;1.6;;;;;;;15.24;92.98242;942.2053;;;;
2021/08/23 02:44:25;;;;;;;2.2;1.3;;;;;;;15.16;93.29785;942.2685;;;;
2021/08/23 02:46:50;;;;;;;1.7;1.4;;;;;;;15.12;93.93652;942.2461;;;;
2021/08/23 02:49:16;;;;;;;2.5;1.6;;;;;;;15.11;94.18848;942.2629;;;;
2021/08/23 02:51:40;;;;;;;2;1.8;;;;;;;15.16;94.0498;942.2678;;;;
2021/08/23 02:54:05;;;;;;;1.5;1.4;;;;;;;15.22;93.87695;942.3409;;;;
2021/08/23 02:56:31;;;;;;;5.2;2.2;;;;;;;15.18;94.26172;942.3231;;;;
2021/08/23 02:58:56;;;;;;;1.8;1.5;;;;;;;15.1;94.44043;942.312;;;;
2021/08/23 03:01:21;;;;;;;1.5;1.2;;;;;;;15.02;94.65332;942.2728;;;;
2021/08/23 03:03:46;;;;;;;1.5;1.2;;;;;;;14.97;94.87207;942.3375;;;;
2021/08/23 03:06:12;;;;;;;1.4;1.2;;;;;;;15;95.09961;942.3365;;;;
2021/08/23 03:08:36;;;;;;;2.6;1.6;;;;;;;14.96;94.87207;942.3719;;;;
2021/08/23 03:11:01;;;;;;;1.3;1.2;;;;;;;14.98;94.74707;942.3936;;;;
2021/08/23 03:13:26;;;;;;;1.2;1.1;;;;;;;15.07;94.13281;942.3497;;;;
2021/08/23 03:15:51;;;;;;;1.6;1;;;;;;;15.14;94.48438;942.3111;;;;
2021/08/23 03:18:17;;;;;;;1.3;1.1;;;;;;;15.15;94.27734;942.3102;;;;
2021/08/23 03:20:42;;;;;;;1.4;1.3;;;;;;;15.08;94.73438;942.243;;;;
2021/08/23 03:23:07;;;;;;;3;1.4;;;;;;;15.11;94.41895;942.1828;;;;
2021/08/23 03:25:32;;;;;;;2.1;1.5;;;;;;;14.99;94.05762;942.1602;;;;
2021/08/23 03:27:57;;;;;;;2.1;1.3;;;;;;;15.08;93.55957;942.2197;;;;
2021/08/23 03:30:22;;;;;;;1.4;1.3;;;;;;;14.89;95.54883;942.2935;;;;
2021/08/23 03:32:47;;;;;;;2;1.4;;;;;;;14.77;96.4668;942.2692;;;;
2021/08/23 03:35:13;;;;;;;1.6;1.4;;;;;;;14.75;96.11621;942.2427;;;;
2021/08/23 03:37:38;;;;;;;2.1;1.4;;;;;;;14.82;95.59961;942.2542;;;;
2021/08/23 03:40:03;;;;;;;1.9;1.5;;;;;;;14.83;95.19824;942.2911;;;;
2021/08/23 03:42:28;;;;;;;2.4;1.4;;;;;;;14.76;95.01172;942.29;;;;
2021/08/23 03:45:40;;;;;;;2.8;1.5;;;;;;;14.79;94.63672;942.2715;;;;
2021/08/23 03:48:06;;;;;;;2.1;1.5;;;;;;;14.77;94.50684;942.3188;;;;
2021/08/23 03:50:43;;;;;;;2.3;1.8;;;;;;;14.82;94.34277;942.2838;;;;
2021/08/23 03:53:09;;;;;;;2.8;1.4;;;;;;;14.82;94.75781;942.3728;;;;
2021/08/23 03:55:34;;;;;;;2.9;1.7;;;;;;;14.71;95.24414;942.3677;;;;
2021/08/23 03:58:09;;;;;;;1.4;1.3;;;;;;;14.74;95.06543;942.3653;;;;
2021/08/23 04:02:31;;;;;;;2;1.7;;;;;;;14.68;95.30762;942.3348;;;;
2021/08/23 04:04:56;;;;;;;1.9;1.7;;;;;;;14.72;94.86523;942.2692;;;;
2021/08/23 04:07:21;;;;;;;3.3;1.6;;;;;;;14.76;94.63086;942.258;;;;
2021/08/23 04:09:47;;;;;;;1.9;1.7;;;;;;;14.74;94.83301;942.407;;;;
2021/08/23 04:12:12;;;;;;;2.5;1.7;;;;;;;14.66;95.38184;942.4175;;;;
2021/08/23 04:14:37;;;;;;;1.6;1.5;;;;;;;14.63;95.78906;942.4022;;;;
2021/08/23 04:17:02;;;;;;;1.9;1.7;;;;;;;14.69;95.02148;942.4142;;;;
2021/08/23 04:19:27;;;;;;;1.8;1.6;;;;;;;14.65;95.31055;942.4462;;;;
2021/08/23 04:21:53;;;;;;;2.1;1.8;;;;;;;14.66;95.80859;942.3741;;;;
2021/08/23 04:24:17;;;;;;;2.2;1.7;;;;;;;14.6;96.26758;942.3914;;;;
2021/08/23 04:26:43;;;;;;;4.7;1.8;;;;;;;14.64;95.41309;942.33;;;;
2021/08/23 04:29:08;;;;;;;2.1;1.6;;;;;;;14.77;95.31348;942.4278;;;;
2021/08/23 04:31:34;;;;;;;2.4;1.6;;;;;;;14.71;95.51855;942.4519;;;;
2021/08/23 04:33:58;;;;;;;2.4;1.9;;;;;;;14.63;95.08789;942.4207;;;;
2021/08/23 04:36:23;;;;;;;2.4;1.8;;;;;;;14.59;95.32227;942.3778;;;;
2021/08/23 04:38:48;;;;;;;2.7;1.8;;;;;;;14.6;95.13965;942.4436;;;;
2021/08/23 04:41:13;;;;;;;1.6;1.5;;;;;;;14.62;94.93652;942.4423;;;;
2021/08/23 04:43:38;;;;;;;1.7;1.5;;;;;;;14.63;94.66113;942.4607;;;;
2021/08/23 04:46:04;;;;;;;1.6;1.5;;;;;;;14.64;95.00684;942.4375;;;;
2021/08/23 04:48:29;;;;;;;1.7;1.6;;;;;;;14.64;95.15918;942.4663;;;;
2021/08/23 04:50:54;;;;;;;2;1.6;;;;;;;14.67;94.94629;942.4415;;;;
2021/08/23 04:53:19;;;;;;;2.6;1.8;;;;;;;14.65;95.10352;942.411;;;;
2021/08/23 04:55:44;;;;;;;2.8;1.7;;;;;;;14.74;94.74219;942.4631;;;;
2021/08/23 04:58:09;;;;;;;3.6;1.9;;;;;;;14.68;95.3418;942.4928;;;;
2021/08/23 05:00:35;;;;;;;4.5;1.8;;;;;;;14.78;95.3291;942.484;;;;
2021/08/23 05:03:00;;;;;;;3.1;1.8;;;;;;;14.86;94.59473;942.457;;;;
2021/08/23 05:05:25;;;;;;;2.8;1.7;;;;;;;14.99;94.31152;942.4105;;;;
2021/08/23 05:07:50;;;;;;;2.3;1.7;;;;;;;15.03;94.26465;942.5358;;;;
2021/08/23 05:10:15;;;;;;;2.6;1.8;;;;;;;14.92;94.8623;942.5331;;;;
2021/08/23 05:12:41;;;;;;;1.9;1.6;;;;;;;14.87;94.86426;942.5067;;;;
2021/08/23 05:15:06;;;;;;;3.1;2.4;;;;;;;14.88;94.7832;942.5035;;;;
2021/08/23 05:17:31;;;;;;;2.6;1.7;;;;;;;14.91;94.28418;942.5452;;;;
2021/08/23 05:19:56;;;;;;;2.2;1.6;;;;;;;15.03;93.33984;942.5278;;;;
2021/08/23 05:22:22;;;;;;;3.5;1.8;;;;;;;15.06;93.12695;942.5189;;;;
2021/08/23 05:24:46;;;;;;;2.2;1.7;;;;;;;14.99;93.43457;942.5162;;;;
2021/08/23 05:27:11;;;;;;;2.3;1.6;;;;;;;15.08;92.90137;942.5502;;;;
2021/08/23 05:29:37;;;;;;;2.2;1.6;;;;;;;15.21;92.90527;942.5067;;;;
2021/08/23 05:32:02;;;;;;;2.8;1.5;;;;;;;15.28;92.20508;942.4443;;;;
2021/08/23 05:34:27;;;;;;;1.8;1.5;;;;;;;15.33;92.06445;942.5365;;;;
2021/08/23 05:36:52;;;;;;;3.3;1.8;;;;;;;15.2;91.8877;942.5733;;;;
2021/08/23 05:39:17;;;;;;;1.8;1.5;;;;;;;15.3;92.58789;942.571;;;;
2021/08/23 05:41:42;;;;;;;3.9;1.6;;;;;;;15.23;91.80176;942.5928;;;;
2021/08/23 05:44:07;;;;;;;2.2;1.8;;;;;;;15.33;92.05273;942.595;;;;
2021/08/23 05:46:33;;;;;;;1.9;1.6;;;;;;;15.42;92.44141;942.5603;;;;
2021/08/23 05:48:58;;;;;;;1.7;1.6;;;;;;;15.52;91.72363;942.6423;;;;
2021/08/23 05:51:23;;;;;;;2.2;1.4;;;;;;;15.58;91.95605;942.6686;;;;
2021/08/23 05:53:48;;;;;;;2.8;1.7;;;;;;;15.65;91.9248;942.6224;;;;
2021/08/23 05:56:13;;;;;;;2.8;1.8;;;;;;;15.72;92.1582;942.623;;;;
2021/08/23 05:58:38;;;;;;;2.7;1.8;;;;;;;15.7;90.65234;942.6817;;;;
2021/08/23 06:01:05;;;;;;;1.8;1.5;;;;;;;15.62;89.91895;942.6972;;;;
2021/08/23 06:03:28;;;;;;;2.2;1.7;;;;;;;15.59;89.90039;942.709;;;;
2021/08/23 06:05:54;;;;;;;2.5;1.4;;;;;;;15.51;90.40527;942.668;;;;
2021/08/23 06:08:19;;;;;;;2.2;1.6;;;;;;;15.57;90.2334;942.7079;;;;
2021/08/23 06:10:44;;;;;;;3.5;1.9;;;;;;;15.62;91.66309;942.6619;;;;
2021/08/23 06:13:09;;;;;;;2.1;1.6;;;;;;;15.78;90.18359;942.7087;;;;
2021/08/23 06:15:35;;;;;;;2.4;1.7;;;;;;;15.94;89.55664;942.6843;;;;
2021/08/23 06:18:00;;;;;;;3.7;1.6;;;;;;;15.96;88.61426;942.7035;;;;
2021/08/23 06:20:26;;;;;;;5;4.2;;;;;;;16;89.8125;942.7098;;;;
2021/08/23 06:22:51;;;;;;;9;6;;;;;;;15.93;87.9375;942.7012;;;;
2021/08/23 06:25:16;;;;;;;7.2;5.6;;;;;;;16.02;88.00195;942.7131;;;;
2021/08/23 06:27:41;;;;;;;10.2;7.5;;;;;;;16.06;88.13672;942.7363;;;;
2021/08/23 06:30:06;;;;;;;2.4;2.1;;;;;;;15.98;88.20313;942.6953;;;;
2021/08/23 06:32:31;;;;;;;2.9;1.8;;;;;;;16.12;88.16113;942.6781;;;;
2021/08/23 06:34:56;;;;;;;2.9;2;;;;;;;16.06;87.1543;942.5933;;;;
2021/08/23 06:37:22;;;;;;;2.6;1.6;;;;;;;16.05;87.16211;942.6223;;;;
2021/08/23 06:39:47;;;;;;;2.9;1.3;;;;;;;16.11;86.16992;942.6116;;;;
2021/08/23 06:42:12;;;;;;;4.5;1.8;;;;;;;16.23;86.74707;942.5438;;;;
2021/08/23 06:44:37;;;;;;;1.9;1.7;;;;;;;16.11;85.19824;942.5818;;;;
2021/08/23 06:47:02;;;;;;;2.6;1.5;;;;;;;16.2;85.93359;942.6423;;;;
2021/08/23 06:49:27;;;;;;;2.3;1.9;;;;;;;16.32;86.35938;942.6292;;;;
2021/08/23 06:51:53;;;;;;;1.8;1.4;;;;;;;16.54;85.62891;942.6797;;;;
2021/08/23 06:54:25;;;;;;;1.9;1.4;;;;;;;16.42;84.55273;942.6578;;;;
2021/08/23 06:56:51;;;;;;;1.6;1.4;;;;;;;16.43;84.82227;942.6553;;;;
2021/08/23 06:59:17;;;;;;;1.4;1.2;;;;;;;16.26;83.73438;942.6359;;;;
2021/08/23 07:01:42;;;;;;;1.4;1.3;;;;;;;16.61;83.17676;942.6591;;;;
2021/08/23 07:04:08;;;;;;;2.6;1.4;;;;;;;16.86;82.8291;942.593;;;;
2021/08/23 07:06:32;;;;;;;3.1;1.5;;;;;;;16.82;82.78711;942.6309;;;;
2021/08/23 07:08:57;;;;;;;1.6;1.3;;;;;;;16.87;81.14063;942.6178;;;;
2021/08/23 07:11:22;;;;;;;2;1.6;;;;;;;16.86;82.77246;942.6863;;;;
2021/08/23 07:13:47;;;;;;;1.7;1.4;;;;;;;16.92;81.9502;942.7172;;;;
2021/08/23 07:16:12;;;;;;;2.2;1.6;;;;;;;16.81;83.78125;942.6896;;;;
2021/08/23 07:18:37;;;;;;;2;1.6;;;;;;;16.77;83.68262;942.6473;;;;
2021/08/23 07:21:03;;;;;;;1.9;1.7;;;;;;;16.67;83.16406;942.652;;;;
2021/08/23 07:23:28;;;;;;;2.4;1.6;;;;;;;16.64;84.53809;942.6454;;;;
2021/08/23 07:25:53;;;;;;;2.1;1.6;;;;;;;16.65;82.94141;942.5818;;;;
2021/08/23 07:28:18;;;;;;;5;2.7;;;;;;;16.8;82.10059;942.5739;;;;
2021/08/23 07:30:44;;;;;;;10.1;7.8;;;;;;;16.82;82.8125;942.6351;;;;
2021/08/23 07:33:08;;;;;;;33;23.8;;;;;;;16.63;82.50879;942.5675;;;;
2021/08/23 07:35:34;;;;;;;22.6;16.2;;;;;;;16.41;82.86133;942.5789;;;;
2021/08/23 07:37:59;;;;;;;13.9;11.2;;;;;;;16.5;85.2627;942.5906;;;;
2021/08/23 07:40:24;;;;;;;14;11;;;;;;;16.79;84.66797;942.5105;;;;
2021/08/23 07:42:49;;;;;;;6.6;5.8;;;;;;;16.92;84.39551;942.5402;;;;
2021/08/23 07:45:18;;;;;;;3.1;2.6;;;;;;;17.2;83.38184;942.5598;;;;
2021/08/23 07:47:44;;;;;;;2.8;2.5;;;;;;;17.43;81.55762;942.5098;;;;
2021/08/23 07:50:07;;;;;;;3.1;1.9;;;;;;;17.6;82.58691;942.5178;;;;
2021/08/23 07:52:32;;;;;;;2.7;1.6;;;;;;;17.75;79.81836;942.4861;;;;
2021/08/23 07:54:57;;;;;;;1.9;1.5;;;;;;;17.93;78.44434;942.457;;;;
2021/08/23 07:57:23;;;;;;;4.1;1.6;;;;;;;17.83;78.46191;942.4331;;;;
2021/08/23 07:59:48;;;;;;;1.6;1.5;;;;;;;18.09;77.28906;942.5027;;;;
2021/08/23 08:02:13;;;;;;;1.7;1.4;;;;;;;18.12;77.95703;942.4919;;;;
2021/08/23 08:04:39;;;;;;;1.5;1.2;;;;;;;18.26;76.07324;942.4525;;;;
2021/08/23 08:07:03;;;;;;;2.4;1.2;;;;;;;18.34;75.6709;942.4183;;;;
2021/08/23 08:09:28;;;;;;;1.5;1.3;;;;;;;18.02;77.25293;942.4431;;;;
2021/08/23 08:11:53;;;;;;;1.6;1.5;;;;;;;18.12;79.38477;942.4694;;;;
2021/08/23 08:14:18;;;;;;;2.6;1.6;;;;;;;18.35;76.64844;942.4464;;;;
2021/08/23 08:16:43;;;;;;;1.6;1.5;;;;;;;18.34;78.77246;942.4506;;;;
2021/08/23 08:19:08;;;;;;;2.4;1.7;;;;;;;18.13;77.67871;942.4217;;;;
2021/08/23 08:21:33;;;;;;;2.2;2;;;;;;;18.7;75.82617;942.3801;;;;
2021/08/23 08:23:59;;;;;;;2.5;1.6;;;;;;;18.75;74.46094;942.4278;;;;
2021/08/23 08:26:25;;;;;;;2;1.3;;;;;;;19.13;72.60547;942.4084;;;;
2021/08/23 08:28:50;;;;;;;1.5;1.4;;;;;;;19.87;69.27246;942.4295;;;;
2021/08/23 08:31:15;;;;;;;1.4;1.2;;;;;;;20.54;68.67676;942.3909;;;;
2021/08/23 08:33:40;;;;;;;1.3;1.1;;;;;;;21.05;66.53418;942.3886;;;;
2021/08/23 08:36:05;;;;;;;1.5;1;;;;;;;21.08;64.71387;942.3847;;;;
2021/08/23 08:38:30;;;;;;;1.1;1;;;;;;;22.23;62.9248;942.3002;;;;
2021/08/23 08:40:55;;;;;;;1.7;1.2;;;;;;;23.9;53.61426;942.2776;;;;
2021/08/23 08:43:21;;;;;;;1;0.9;;;;;;;24.77;50.59277;942.3094;;;;
2021/08/23 08:45:46;;;;;;;1.2;1;;;;;;;25.56;48.82813;942.2297;;;;
2021/08/23 08:48:11;;;;;;;1.5;1;;;;;;;27.18;45.61426;942.2578;;;;
2021/08/23 08:50:36;;;;;;;1.2;0.8;;;;;;;26.79;45.25391;942.207;;;;
2021/08/23 08:53:05;;;;;;;0.8;0.8;;;;;;;28.57;40.39063;942.2381;;;;
2021/08/23 08:55:30;;;;;;;0.9;0.8;;;;;;;29.64;38.83008;942.296;;;;
2021/08/23 08:57:52;;;;;;;0.8;0.8;;;;;;;28.67;40.7207;942.2561;;;;
2021/08/23 09:00:17;;;;;;;1.1;0.8;;;;;;;25.88;46.29688;942.2886;;;;
2021/08/23 09:02:42;;;;;;;1.4;1;;;;;;;25.32;46.32324;942.2538;;;;
2021/08/23 09:05:07;;;;;;;0.8;0.7;;;;;;;23.56;51.75;942.2115;;;;
2021/08/23 09:07:32;;;;;;;1.5;0.9;;;;;;;24.02;49.54297;942.1537;;;;
2021/08/23 09:09:57;;;;;;;1.4;1;;;;;;;23.1;52.7666;942.153;;;;
2021/08/23 09:12:22;;;;;;;3.1;2.3;;;;;;;22.41;55.10156;942.0782;;;;
2021/08/23 09:14:48;;;;;;;0.9;0.9;;;;;;;21.63;58.70508;942.0906;;;;
2021/08/23 09:17:13;;;;;;;1.8;1;;;;;;;22.45;57.20605;942.0036;;;;
2021/08/23 09:19:40;;;;;;;0.7;0.7;;;;;;;23.98;53.94141;941.9355;;;;
2021/08/23 09:22:03;;;;;;;1.7;1;;;;;;;25.68;46.72559;941.9519;;;;
2021/08/23 09:24:29;;;;;;;2.8;1;;;;;;;27.07;42.61523;941.8831;;;;
2021/08/23 09:26:54;;;;;;;1.3;1;;;;;;;28.39;42.59766;941.8636;;;;
2021/08/23 09:29:22;;;;;;;1.3;1;;;;;;;28.14;43.02539;941.8033;;;;
2021/08/23 09:31:48;;;;;;;2.1;1.2;;;;;;;25.25;49.75;941.7949;;;;
2021/08/23 09:34:13;;;;;;;1.3;1.1;;;;;;;25.37;51.32324;941.7797;;;;
2021/08/23 09:36:38;;;;;;;1.4;0.8;;;;;;;26.28;44.39746;941.7808;;;;
2021/08/23 09:39:03;;;;;;;0.9;0.9;;;;;;;26.47;47.08008;941.7825;;;;
2021/08/23 09:41:28;;;;;;;1.5;0.9;;;;;;;25.71;49.23535;941.8044;;;;
2021/08/23 09:43:53;;;;;;;1.4;1;;;;;;;25.22;50.44336;941.7118;;;;
2021/08/23 09:46:19;;;;;;;1.1;1;;;;;;;25.41;49.43848;941.6981;;;;
2021/08/23 09:48:44;;;;;;;1.7;1;;;;;;;25.92;43.66504;941.7328;;;;
2021/08/23 09:51:09;;;;;;;0.7;0.7;;;;;;;24.98;46.72363;941.6892;;;;
2021/08/23 09:53:35;;;;;;;1.1;0.9;;;;;;;24.55;54.58789;941.6831;;;;
2021/08/23 09:55:59;;;;;;;6.2;2.5;;;;;;;24.31;51;941.6516;;;;
2021/08/23 09:58:24;;;;;;;2.8;1.4;;;;;;;23.25;52.70117;941.5765;;;;
2021/08/23 10:00:50;;;;;;;4.9;2.5;;;;;;;22.85;54.22754;941.5519;;;;
2021/08/23 10:03:15;;;;;;;1.2;1.1;;;;;;;22.16;57.36816;941.5281;;;;
2021/08/23 10:05:41;;;;;;;1.7;1.3;;;;;;;22.22;59.00586;941.5458;;;;
2021/08/23 10:08:06;;;;;;;1.5;1.3;;;;;;;22.3;57.28027;941.5469;;;;
2021/08/23 10:10:31;;;;;;;1.8;1;;;;;;;22.34;56.12402;941.4914;;;;
2021/08/23 10:12:56;;;;;;;0.8;0.8;;;;;;;22.11;53.36328;941.5233;;;;
2021/08/23 10:15:21;;;;;;;1.1;1;;;;;;;22.23;56.04004;941.5037;;;;
2021/08/23 10:17:46;;;;;;;2;1.1;;;;;;;22.71;54.75098;941.4736;;;;
2021/08/23 10:20:12;;;;;;;1.5;0.8;;;;;;;22.21;56.4834;941.4698;;;;
2021/08/23 10:22:37;;;;;;;3.2;1.1;;;;;;;21.94;56.9541;941.4375;;;;
2021/08/23 10:25:02;;;;;;;1.4;0.8;;;;;;;21.99;58.81152;941.4069;;;;
2021/08/23 10:27:28;;;;;;;2.1;1;;;;;;;22.06;56.60547;941.402;;;;
2021/08/23 10:29:53;;;;;;;1;0.9;;;;;;;21.15;60.96875;941.3942;;;;
2021/08/23 10:32:18;;;;;;;1;0.8;;;;;;;21.19;61.04492;941.2665;;;;
2021/08/23 10:34:43;;;;;;;1.6;0.8;;;;;;;21.13;61.28125;941.1994;;;;
2021/08/23 10:37:08;;;;;;;1.4;0.9;;;;;;;20.67;65.25098;941.2196;;;;
2021/08/23 10:39:35;;;;;;;1.8;1;;;;;;;20.76;62.86816;941.1857;;;;
2021/08/23 10:41:59;;;;;;;1.3;1;;;;;;;20.6;62.8916;941.2039;;;;
2021/08/23 10:44:24;;;;;;;0.8;0.8;;;;;;;20.88;63.25781;941.2454;;;;
2021/08/23 10:46:50;;;;;;;1;0.9;;;;;;;20.46;65.05469;941.2227;;;;
2021/08/23 10:49:15;;;;;;;1.6;1.2;;;;;;;20.5;66.22852;941.1951;;;;
2021/08/23 10:51:40;;;;;;;1.3;0.8;;;;;;;20.95;60.3457;941.1642;;;;
2021/08/23 10:54:05;;;;;;;1.4;1;;;;;;;21.23;59.59961;941.269;;;;
2021/08/23 10:56:30;;;;;;;1.5;0.8;;;;;;;21.06;60.58203;941.2377;;;;
2021/08/23 10:58:55;;;;;;;1.1;0.9;;;;;;;21.36;60.40137;941.2222;;;;
2021/08/23 11:01:21;;;;;;;1;0.8;;;;;;;21.6;57.10742;941.1599;;;;
2021/08/23 11:03:45;;;;;;;0.8;0.8;;;;;;;21.75;58.08691;941.1503;;;;
2021/08/23 11:06:10;;;;;;;0.9;0.7;;;;;;;22.76;53.3125;941.1594;;;;
2021/08/23 11:08:36;;;;;;;1;0.7;;;;;;;22.72;52.74414;941.1805;;;;
2021/08/23 11:11:01;;;;;;;1.6;1.5;;;;;;;23.66;54.19629;941.1799;;;;
2021/08/23 11:13:27;;;;;;;2.2;1.3;;;;;;;24.12;52.52148;941.1292;;;;
2021/08/23 11:15:54;;;;;;;0.6;0.6;;;;;;;24.99;47.12695;941.1648;;;;
2021/08/23 11:18:20;;;;;;;0.7;0.7;;;;;;;26.2;49.04004;941.1057;;;;
2021/08/23 11:20:44;;;;;;;0.8;0.7;;;;;;;26.95;39.51074;941.1176;;;;
2021/08/23 11:23:09;;;;;;;0.7;0.7;;;;;;;27.39;42.14746;941.0964;;;;
2021/08/23 11:25:34;;;;;;;0.7;0.7;;;;;;;26.61;42.93848;941.092;;;;
2021/08/23 11:27:59;;;;;;;1.4;0.8;;;;;;;27.38;41.73145;941.0845;;;;
2021/08/23 11:30:24;;;;;;;0.7;0.7;;;;;;;28.94;37.9248;941.0853;;;;
2021/08/23 11:32:49;;;;;;;0.6;0.5;;;;;;;29.31;37.07324;941.0455;;;;
2021/08/23 11:35:14;;;;;;;1.3;0.9;;;;;;;29.3;39.74121;941.0093;;;;
2021/08/23 11:37:40;;;;;;;1.4;0.7;;;;;;;29.13;36.91602;941.052;;;;
2021/08/23 11:40:05;;;;;;;0.8;0.7;;;;;;;31.2;33.67676;941.0125;;;;
2021/08/23 11:42:30;;;;;;;1.1;0.6;;;;;;;31.29;33.1084;941.0306;;;;
2021/08/23 11:44:56;;;;;;;1.1;0.9;;;;;;;30.65;36.2998;941.0262;;;;
2021/08/23 11:47:20;;;;;;;0.8;0.7;;;;;;;29.88;35.04492;941.0626;;;;
2021/08/23 11:49:45;;;;;;;1.2;0.7;;;;;;;28.86;35.03809;941.1375;;;;
2021/08/23 11:52:10;;;;;;;1;0.8;;;;;;;27.47;38.0498;941.0934;;;;
2021/08/23 11:54:35;;;;;;;1;0.6;;;;;;;26.28;39.71191;941.1047;;;;
2021/08/23 11:57:01;;;;;;;1.3;1.2;;;;;;;25.43;43.91309;941.1595;;;;
2021/08/23 11:59:26;;;;;;;1.6;1.1;;;;;;;24.47;46.87012;941.1863;;;;
2021/08/23 12:01:51;;;;;;;1.4;1;;;;;;;23.96;48.68945;941.2062;;;;
2021/08/23 12:04:16;;;;;;;4.3;1;;;;;;;22.39;53.70117;941.1986;;;;
2021/08/23 12:06:41;;;;;;;1.5;1.1;;;;;;;21.95;55.67676;941.1859;;;;
2021/08/23 12:09:06;;;;;;;1.1;0.9;;;;;;;20.84;59.23242;941.2875;;;;
2021/08/23 12:11:32;;;;;;;1.8;0.9;;;;;;;20.8;58.71191;941.2827;;;;
2021/08/23 12:13:57;;;;;;;2.5;0.9;;;;;;;20.59;60.08594;941.3208;;;;
2021/08/23 12:16:22;;;;;;;1.4;1.3;;;;;;;20.37;61.5625;941.3342;;;;
2021/08/23 12:18:49;;;;;;;1.3;0.9;;;;;;;20.35;62.61133;941.3225;;;;
2021/08/23 12:21:14;;;;;;;2.5;1.4;;;;;;;20.4;64.19434;941.3909;;;;
2021/08/23 12:23:40;;;;;;;2.5;1.1;;;;;;;20.45;63.3252;941.4308;;;;
2021/08/23 12:26:05;;;;;;;1.5;1;;;;;;;19.98;65.5918;941.4364;;;;
2021/08/23 12:28:30;;;;;;;3.1;1.9;;;;;;;19.83;67.23828;941.4363;;;;
2021/08/23 12:30:55;;;;;;;1.9;1.1;;;;;;;19.78;66.62305;941.5025;;;;
2021/08/23 12:33:20;;;;;;;1.7;1.1;;;;;;;20;66.87891;941.498;;;;
2021/08/23 12:35:45;;;;;;;1.5;1.1;;;;;;;20.19;64.75879;941.5023;;;;
2021/08/23 12:38:10;;;;;;;0.9;0.8;;;;;;;20.39;63.76172;941.5183;;;;
2021/08/23 12:40:36;;;;;;;1.7;1;;;;;;;20.38;64.71777;941.4408;;;;
2021/08/23 12:43:01;;;;;;;2.6;1.1;;;;;;;20.27;67.16504;941.4684;;;;
2021/08/23 12:45:26;;;;;;;2.3;1.3;;;;;;;20.75;65.99805;941.4548;;;;
2021/08/23 12:47:52;;;;;;;1.4;1.2;;;;;;;21.08;63.9541;941.5101;;;;
2021/08/23 12:50:17;;;;;;;1.6;1;;;;;;;21.97;62.85254;941.4836;;;;
2021/08/23 12:52:42;;;;;;;2.8;1.3;;;;;;;22.1;59.64648;941.38;;;;
2021/08/23 12:55:07;;;;;;;1.8;1.1;;;;;;;22.45;60.20996;941.3744;;;;
2021/08/23 12:57:32;;;;;;;1.3;1.2;;;;;;;22.78;59.56152;941.4188;;;;
2021/08/23 12:59:58;;;;;;;1.5;1.2;;;;;;;21.98;60.8252;941.3797;;;;
2021/08/23 13:02:24;;;;;;;3.3;1;;;;;;;21.61;61.96875;941.3688;;;;
2021/08/23 13:04:49;;;;;;;1.6;1.1;;;;;;;21.8;61.28027;941.3571;;;;
2021/08/23 13:07:15;;;;;;;1.3;1;;;;;;;22.03;60.72559;941.3453;;;;
2021/08/23 13:09:40;;;;;;;1.6;1;;;;;;;22.12;60;941.2927;;;;
2021/08/23 13:12:05;;;;;;;2.9;1.1;;;;;;;21.61;60.10645;941.3104;;;;
2021/08/23 13:14:30;;;;;;;1.3;1.2;;;;;;;21.97;58.05859;941.3498;;;;
2021/08/23 13:16:55;;;;;;;1.7;1;;;;;;;22.32;58.3623;941.2916;;;;
2021/08/23 13:19:20;;;;;;;1.3;1.1;;;;;;;21.95;58.66504;941.3172;;;;
2021/08/23 13:21:45;;;;;;;1.7;1;;;;;;;22.26;59.64453;941.2737;;;;
2021/08/23 13:24:11;;;;;;;1.2;1.1;;;;;;;22.59;58.45703;941.2377;;;;
2021/08/23 13:26:37;;;;;;;3.3;1.3;;;;;;;22.93;57.76172;941.2364;;;;
2021/08/23 13:29:02;;;;;;;2.2;1.1;;;;;;;23.22;54.13184;941.2966;;;;
2021/08/23 13:31:28;;;;;;;2;1.1;;;;;;;23.16;55.55762;941.1917;;;;
2021/08/23 13:33:52;;;;;;;1.2;1;;;;;;;23.1;54.78711;941.2521;;;;
2021/08/23 13:36:17;;;;;;;1.6;1;;;;;;;22.5;57.21289;941.313;;;;
2021/08/23 13:38:42;;;;;;;1.2;1.1;;;;;;;22.11;56.7041;941.31;;;;
2021/08/23 13:41:07;;;;;;;1.9;1.1;;;;;;;22.34;56.93457;941.2374;;;;
2021/08/23 13:43:33;;;;;;;1.5;1.2;;;;;;;22.63;56.19727;941.236;;;;
2021/08/23 13:45:58;;;;;;;1.9;1.2;;;;;;;22.56;55.17871;941.2136;;;;
2021/08/23 13:48:23;;;;;;;1.2;1;;;;;;;22.47;56.50488;941.2383;;;;
2021/08/23 13:50:48;;;;;;;1.9;1.2;;;;;;;22.54;56.66504;941.242;;;;
2021/08/23 13:53:14;;;;;;;1.4;1.1;;;;;;;22.72;56.17285;941.2436;;;;
2021/08/23 13:55:39;;;;;;;1.9;1.1;;;;;;;21.97;61.70215;941.2275;;;;
2021/08/23 13:58:04;;;;;;;1.7;1.1;;;;;;;21.09;63.7793;941.3123;;;;
2021/08/23 14:00:29;;;;;;;1.2;1.1;;;;;;;21.4;63.96387;941.2559;;;;
2021/08/23 14:02:55;;;;;;;2.3;1.4;;;;;;;21.62;64.22949;941.2395;;;;
2021/08/23 14:05:19;;;;;;;1.7;1.2;;;;;;;21.25;63.76758;941.2333;;;;
2021/08/23 14:07:45;;;;;;;1.8;1.2;;;;;;;21.34;64.6582;941.2575;;;;
2021/08/23 14:10:13;;;;;;;2.5;1.3;;;;;;;21.55;64.05664;941.278;;;;
2021/08/23 14:12:35;;;;;;;2.8;1.5;;;;;;;21.65;62.72461;941.26;;;;
2021/08/23 14:15:00;;;;;;;2.8;1.4;;;;;;;21.54;64.67578;941.2424;;;;
2021/08/23 14:17:25;;;;;;;1.6;1.3;;;;;;;21.79;61.57227;941.2042;;;;
2021/08/23 14:19:51;;;;;;;3.3;1.4;;;;;;;21.88;61.5498;941.2019;;;;